Berwick, North Dakota
Current Conditions -  °F | °C
As of 10:15 AM on Sunday 23 Nov 2014 (Local Time) from KRUG Reporting Station
Overcast Overcast  
Wind Chill: 13°   Ceiling: 2500
Heat Index: 27°   Visibility: 10mi
Dew Point: 19°   Wind: 18mph
Humidity: 74%   Direction: 280°W
Pressure: 29.42"   Gusts: NA
Location:  48.4251°N, 100.424°W
Report Text: KRUG 231615Z AUTO 28016KT 10SM BKN025 OVC034 M03/M07 A2942 RMK AO2
Loading
Personal Weather Stations






























Interactive Weather Map New forecast layout! Learn more

10-Day Weather Forecast

Advertisements
Track Severe Weather on mobile